« Back
NWS Peachtree City, Ga » Text Product » CSG Terminal Aerodrome Forecast


Printer-friendly Version
Current Version              Previous Versions:   1  2  3  4  5  6  7  8  9  

Terminal Aerodrome Forecast

775
FTUS42 KFFC 072323
TAFCSG
TAF
KCSG 072323Z 0800/0824 31006KT P6SM SCT250
     FM081000 26004KT P6SM SCT090 BKN250
     FM081400 27007KT P6SM SCT050 BKN080
     FM081800 28010G18KT P6SM SCT035 BKN050 PROB30 0818/0824 6SM
      -SHRA BKN035=



USA.gov is the U.S. government's official web portal to all federal, state and local government web resources and services.